createdAt,value
2023-03-26T00:00:17.350Z,96042.19
2023-03-26T00:02:18.944Z,96044.50
2023-03-26T00:04:21.751Z,96048.25
2023-03-26T00:06:26.382Z,96047.28
2023-03-26T00:08:27.932Z,96043.97
2023-03-26T00:10:29.606Z,96042.38
2023-03-26T00:12:31.202Z,96050.06
2023-03-26T00:14:33.439Z,96031.03
2023-03-26T00:16:36.047Z,96031.63
2023-03-26T00:18:40.326Z,96041.41
2023-03-26T00:20:41.822Z,96036.03
2023-03-26T00:22:43.359Z,96035.88
2023-03-26T00:24:47.512Z,96050.16
2023-03-26T00:26:54.592Z,96040.22
2023-03-26T00:28:58.154Z,96038.72
2023-03-26T00:31:02.476Z,96037.91
2023-03-26T00:33:04.312Z,96045.28
2023-03-26T00:35:06.363Z,96050.41
2023-03-26T00:37:08.746Z,96047.19
2023-03-26T00:39:10.423Z,96039.59
2023-03-26T00:41:25.458Z,96042.69
2023-03-26T00:43:32.678Z,96042.78
2023-03-26T00:45:34.187Z,96048.47
2023-03-26T00:47:36.303Z,96031.63
2023-03-26T00:49:39.291Z,96028.94
2023-03-26T00:51:41.790Z,96029.97
2023-03-26T00:53:45.781Z,96027.91
2023-03-26T00:55:47.880Z,96037.09
2023-03-26T00:57:49.377Z,96030.72
2023-03-26T00:59:51.273Z,96029.66
2023-03-26T01:01:54.932Z,96024.91
2023-03-26T01:04:08.939Z,96027.28
2023-03-26T01:06:14.079Z,96038.41
2023-03-26T01:08:30.604Z,96033.28
2023-03-26T01:10:38.868Z,96026.00
2023-03-26T01:12:40.599Z,96024.72
2023-03-26T01:14:43.116Z,96014.53
2023-03-26T01:16:52.825Z,96006.41
2023-03-26T01:18:54.863Z,96014.47
2023-03-26T01:20:58.548Z,96009.84
2023-03-26T01:23:08.084Z,95999.31
2023-03-26T01:25:10.080Z,96005.81
2023-03-26T01:27:32.254Z,96012.00
2023-03-26T01:29:54.609Z,96002.06
2023-03-26T01:32:09.508Z,95998.53
2023-03-26T01:34:17.759Z,95996.50
2023-03-26T01:36:38.043Z,95999.41
2023-03-26T01:38:50.152Z,95992.13
2023-03-26T01:41:16.246Z,96003.25
2023-03-26T01:43:32.773Z,95992.59
2023-03-26T01:45:38.680Z,95993.31
2023-03-26T01:47:42.179Z,95985.50
2023-03-26T01:49:43.755Z,95985.00
2023-03-26T01:51:45.831Z,95983.06
2023-03-26T01:53:48.261Z,95986.25
2023-03-26T01:56:10.833Z,95974.03
2023-03-26T01:58:29.959Z,95980.50
2023-03-26T02:00:35.860Z,95980.13
2023-03-26T02:03:17.366Z,95969.47
2023-03-26T02:05:26.271Z,95971.66
2023-03-26T02:07:41.063Z,95955.59
2023-03-26T02:09:45.837Z,95959.97
2023-03-26T02:11:49.407Z,95959.81
2023-03-26T02:13:51.810Z,95955.31
2023-03-26T02:16:01.611Z,95956.53
2023-03-26T02:18:04.047Z,95949.41
2023-03-26T02:20:11.233Z,95947.84
2023-03-26T02:22:15.511Z,95942.13
2023-03-26T02:24:19.750Z,95947.44
2023-03-26T02:26:21.864Z,95937.72
2023-03-26T02:28:31.509Z,95940.66
2023-03-26T02:30:33.607Z,95939.91
2023-03-26T02:32:36.587Z,95939.91
2023-03-26T02:34:41.954Z,95933.13
2023-03-26T02:36:43.754Z,95931.78
2023-03-26T02:38:45.283Z,95937.84
2023-03-26T02:40:49.240Z,95931.94
2023-03-26T02:42:51.040Z,95930.78
2023-03-26T02:44:52.582Z,95929.63
2023-03-26T02:46:54.193Z,95925.41
2023-03-26T02:49:16.201Z,95920.31
2023-03-26T02:51:19.441Z,95924.66
2023-03-26T02:53:30.648Z,95917.72
2023-03-26T02:55:52.549Z,95923.09
2023-03-26T02:57:56.339Z,95918.13
2023-03-26T03:00:13.969Z,95911.13
2023-03-26T03:02:34.726Z,95910.00
2023-03-26T03:05:01.376Z,95907.06
2023-03-26T03:07:07.731Z,95907.88
2023-03-26T03:09:09.752Z,95910.84
2023-03-26T03:11:24.908Z,95904.69
2023-03-26T03:13:28.027Z,95898.13
2023-03-26T03:15:29.638Z,95900.53
2023-03-26T03:17:31.256Z,95895.06
2023-03-26T03:19:32.984Z,95903.31
2023-03-26T03:21:35.186Z,95910.22
2023-03-26T03:23:37.093Z,95904.78
2023-03-26T03:25:45.351Z,95896.38
2023-03-26T03:27:47.828Z,95892.59
2023-03-26T03:29:49.754Z,95902.19
2023-03-26T03:32:23.526Z,95903.81
2023-03-26T03:34:27.870Z,95893.69
2023-03-26T03:36:30.393Z,95897.91
2023-03-26T03:38:40.795Z,95902.06
2023-03-26T03:40:44.433Z,95886.25
2023-03-26T03:42:46.778Z,95893.59
2023-03-26T03:44:53.828Z,95889.47
2023-03-26T03:47:18.622Z,95888.09
2023-03-26T03:49:22.548Z,95879.66
2023-03-26T03:51:24.427Z,95878.44
2023-03-26T03:53:30.458Z,95877.59
2023-03-26T03:55:38.308Z,95879.47
2023-03-26T03:57:40.507Z,95871.63
2023-03-26T03:59:47.988Z,95869.34
2023-03-26T04:01:51.111Z,95861.31
2023-03-26T04:04:08.175Z,95864.78
2023-03-26T04:06:21.221Z,95869.84
2023-03-26T04:08:26.616Z,95876.69
2023-03-26T04:10:30.305Z,95874.47
2023-03-26T04:12:38.518Z,95869.66
2023-03-26T04:14:41.053Z,95873.84
2023-03-26T04:16:48.975Z,95863.03
2023-03-26T04:18:50.923Z,95856.94
2023-03-26T04:20:55.416Z,95861.53
2023-03-26T04:23:00.984Z,95851.97
2023-03-26T04:25:02.911Z,95849.81
2023-03-26T04:27:28.126Z,95852.09
2023-03-26T04:29:42.826Z,95842.91
2023-03-26T04:31:50.408Z,95842.53
2023-03-26T04:33:55.128Z,95842.78
2023-03-26T04:36:02.245Z,95838.28
2023-03-26T04:38:06.495Z,95846.38
2023-03-26T04:40:17.496Z,95841.44
2023-03-26T04:42:46.287Z,95837.63
2023-03-26T04:44:59.647Z,95825.81
2023-03-26T04:47:01.771Z,95826.22
2023-03-26T04:49:19.588Z,95829.34
2023-03-26T04:51:27.059Z,95829.31
2023-03-26T04:53:29.732Z,95815.88
2023-03-26T04:55:41.025Z,95810.50
2023-03-26T04:57:55.899Z,95809.75
2023-03-26T05:00:20.283Z,95814.00
2023-03-26T05:02:28.788Z,95806.28
2023-03-26T05:04:31.318Z,95809.13
2023-03-26T05:06:34.434Z,95798.72
2023-03-26T05:08:41.630Z,95798.66
2023-03-26T05:10:46.392Z,95801.25
2023-03-26T05:12:54.068Z,95790.84
2023-03-26T05:15:00.420Z,95784.34
2023-03-26T05:17:30.886Z,95781.59
2023-03-26T05:19:33.125Z,95776.13
2023-03-26T05:21:35.270Z,95769.59
2023-03-26T05:23:39.525Z,95758.47
2023-03-26T05:26:01.614Z,95765.78
2023-03-26T05:28:03.250Z,95757.72
2023-03-26T05:30:15.996Z,95760.66
2023-03-26T05:32:20.809Z,95754.88
2023-03-26T05:34:27.081Z,95748.44
2023-03-26T05:36:29.095Z,95747.25
2023-03-26T05:38:43.404Z,95731.03
2023-03-26T05:40:46.984Z,95733.84
2023-03-26T05:42:53.140Z,95739.13
2023-03-26T05:45:15.391Z,95733.66
2023-03-26T05:47:17.113Z,95726.00
2023-03-26T05:49:19.102Z,95726.41
2023-03-26T05:51:23.287Z,95717.81
2023-03-26T05:53:50.342Z,95715.44
2023-03-26T05:56:17.665Z,95714.25
2023-03-26T05:58:38.593Z,95711.16
2023-03-26T06:01:05.754Z,95707.72
2023-03-26T06:03:28.698Z,95706.31
2023-03-26T06:05:42.955Z,95704.47
2023-03-26T06:07:52.895Z,95693.50
2023-03-26T06:09:54.950Z,95690.03
2023-03-26T06:11:56.770Z,95695.88
2023-03-26T06:13:58.904Z,95683.59
2023-03-26T06:16:00.918Z,95675.84
2023-03-26T06:18:08.675Z,95676.16
2023-03-26T06:20:28.723Z,95677.13
2023-03-26T06:22:30.846Z,95669.53
2023-03-26T06:24:52.924Z,95664.72
2023-03-26T06:27:13.367Z,95663.75
2023-03-26T06:29:38.490Z,95669.31
2023-03-26T06:31:53.015Z,95668.25
2023-03-26T06:33:58.214Z,95670.88
2023-03-26T06:36:00.113Z,95662.94
2023-03-26T06:38:02.029Z,95658.66
2023-03-26T06:40:05.544Z,95650.31
2023-03-26T06:42:20.442Z,95652.56
2023-03-26T06:44:32.523Z,95655.94
2023-03-26T06:46:52.626Z,95658.03
2023-03-26T06:49:20.793Z,95652.78
2023-03-26T06:52:02.788Z,95647.56
2023-03-26T06:54:35.089Z,95650.38
2023-03-26T06:56:45.047Z,95638.66
2023-03-26T06:59:15.293Z,95636.44
2023-03-26T07:01:35.842Z,95635.25
2023-03-26T07:04:15.840Z,95630.25
2023-03-26T07:06:36.277Z,95632.25
2023-03-26T07:08:57.311Z,95622.03
2023-03-26T07:11:19.446Z,95623.53
2023-03-26T07:13:40.011Z,95624.13
2023-03-26T07:16:00.555Z,95610.00
2023-03-26T07:18:13.797Z,95612.06
2023-03-26T07:20:17.264Z,95611.28
2023-03-26T07:22:23.404Z,95603.03
2023-03-26T07:24:44.130Z,95610.09
2023-03-26T07:27:27.702Z,95601.00
2023-03-26T07:29:47.716Z,95599.66
2023-03-26T07:32:32.849Z,95590.03
2023-03-26T07:35:05.265Z,95587.25
2023-03-26T07:37:44.107Z,95588.44
2023-03-26T07:40:33.207Z,95581.28
2023-03-26T07:43:06.346Z,95585.22
2023-03-26T07:45:33.841Z,95584.22
2023-03-26T07:47:57.983Z,95587.63
2023-03-26T07:50:23.306Z,95576.28
2023-03-26T07:52:37.116Z,95574.78
2023-03-26T07:54:55.505Z,95563.66
2023-03-26T07:57:27.382Z,95564.25
2023-03-26T07:59:55.718Z,95560.63
2023-03-26T08:02:41.286Z,95560.97
2023-03-26T08:05:28.444Z,95557.31
2023-03-26T08:08:25.620Z,95554.81
2023-03-26T08:11:14.503Z,95554.81
2023-03-26T08:14:01.138Z,95558.75
2023-03-26T08:16:10.988Z,95546.81
2023-03-26T08:18:51.427Z,95542.03
2023-03-26T08:21:17.123Z,95541.78
2023-03-26T08:23:50.428Z,95538.53
2023-03-26T08:26:12.691Z,95535.75
2023-03-26T08:28:32.375Z,95531.13
2023-03-26T08:30:34.161Z,95536.50
2023-03-26T08:32:36.406Z,95536.41
2023-03-26T08:34:38.959Z,95531.69
2023-03-26T08:36:40.878Z,95525.84
2023-03-26T08:38:42.437Z,95521.13
2023-03-26T08:41:11.256Z,95526.56
2023-03-26T08:43:33.842Z,95527.94
2023-03-26T08:45:51.326Z,95516.84
2023-03-26T08:48:30.632Z,95521.13
2023-03-26T08:51:07.665Z,95515.13
2023-03-26T08:53:33.786Z,95515.97
2023-03-26T08:55:55.509Z,95518.81
2023-03-26T08:58:09.302Z,95516.50
2023-03-26T09:00:16.617Z,95518.03
2023-03-26T09:02:18.184Z,95517.66
2023-03-26T09:04:53.667Z,95518.09
2023-03-26T09:07:13.668Z,95517.72
2023-03-26T09:10:05.254Z,95522.28
2023-03-26T09:12:25.554Z,95525.97
2023-03-26T09:14:55.597Z,95522.91
2023-03-26T09:17:32.764Z,95531.63
2023-03-26T09:19:54.716Z,95524.06
2023-03-26T09:22:24.280Z,95529.66
2023-03-26T09:24:57.728Z,95522.56
2023-03-26T09:27:09.037Z,95518.84
2023-03-26T09:29:16.743Z,95518.44
2023-03-26T09:31:46.727Z,95512.06
2023-03-26T09:34:07.392Z,95505.75
2023-03-26T09:36:21.663Z,95490.97
2023-03-26T09:38:48.903Z,95484.78
2023-03-26T09:41:08.289Z,95483.25
2023-03-26T09:43:48.676Z,95475.22
2023-03-26T09:46:12.712Z,95483.25
2023-03-26T09:48:20.650Z,95486.28
2023-03-26T09:50:22.146Z,95488.38
2023-03-26T09:52:33.380Z,95486.09
2023-03-26T09:55:03.640Z,95489.22
2023-03-26T09:57:21.107Z,95477.88
2023-03-26T09:59:39.564Z,95475.84
2023-03-26T10:01:41.063Z,95470.66
2023-03-26T10:03:52.826Z,95480.78
2023-03-26T10:06:18.815Z,95476.59
2023-03-26T10:08:28.251Z,95474.78
2023-03-26T10:10:48.476Z,95484.50
2023-03-26T10:13:12.036Z,95472.50
2023-03-26T10:15:42.399Z,95467.78
2023-03-26T10:18:29.443Z,95462.72
2023-03-26T10:20:38.377Z,95448.31
2023-03-26T10:23:15.913Z,95444.63
2023-03-26T10:25:32.026Z,95435.81
2023-03-26T10:27:52.238Z,95433.88
2023-03-26T10:30:17.891Z,95435.91
2023-03-26T10:32:22.127Z,95435.91
2023-03-26T10:34:49.822Z,95436.06
2023-03-26T10:37:08.612Z,95437.34
2023-03-26T10:39:36.749Z,95444.28
2023-03-26T10:42:08.183Z,95441.34
2023-03-26T10:44:21.746Z,95442.38
2023-03-26T10:46:38.386Z,95437.34
2023-03-26T10:49:04.216Z,95448.34
2023-03-26T10:51:36.301Z,95456.97
2023-03-26T10:53:58.617Z,95448.66
2023-03-26T10:56:28.576Z,95443.78
2023-03-26T10:58:48.957Z,95436.97
2023-03-26T11:01:04.028Z,95436.16
2023-03-26T11:03:35.647Z,95430.97
2023-03-26T11:05:59.753Z,95429.66
2023-03-26T11:08:12.244Z,95430.56
2023-03-26T11:10:26.289Z,95428.91
2023-03-26T11:12:39.757Z,95436.28
2023-03-26T11:15:02.052Z,95434.13
2023-03-26T11:17:40.120Z,95435.16
2023-03-26T11:19:53.129Z,95424.19
2023-03-26T11:22:16.125Z,95420.44
2023-03-26T11:24:30.758Z,95421.75
2023-03-26T11:26:45.075Z,95423.94
2023-03-26T11:29:31.870Z,95413.78
2023-03-26T11:32:12.984Z,95406.88
2023-03-26T11:34:23.355Z,95407.13
2023-03-26T11:36:35.775Z,95402.72
2023-03-26T11:38:49.256Z,95398.69
2023-03-26T11:40:59.005Z,95395.44
2023-03-26T11:43:29.931Z,95387.97
2023-03-26T11:45:37.618Z,95387.91
2023-03-26T11:47:46.095Z,95390.00
2023-03-26T11:49:50.037Z,95372.31
2023-03-26T11:51:51.582Z,95375.09
2023-03-26T11:53:55.686Z,95369.13
2023-03-26T11:56:23.616Z,95367.28
2023-03-26T11:58:38.932Z,95349.38
2023-03-26T12:00:40.538Z,95359.31
2023-03-26T12:02:42.945Z,95372.38
2023-03-26T12:04:50.845Z,95373.25
2023-03-26T12:06:59.576Z,95370.69
2023-03-26T12:09:02.548Z,95371.91
2023-03-26T12:11:10.789Z,95367.06
2023-03-26T12:13:21.559Z,95371.75
2023-03-26T12:15:24.872Z,95372.34
2023-03-26T12:17:40.127Z,95367.97
2023-03-26T12:19:44.628Z,95361.94
2023-03-26T12:21:49.538Z,95357.03
2023-03-26T12:23:56.427Z,95352.06
2023-03-26T12:26:16.091Z,95336.47
2023-03-26T12:28:19.591Z,95336.56
2023-03-26T12:30:39.365Z,95333.28
2023-03-26T12:32:46.321Z,95330.19
2023-03-26T12:34:48.847Z,95336.31
2023-03-26T12:36:56.094Z,95331.31
2023-03-26T12:39:42.727Z,95334.63
2023-03-26T12:44:47.002Z,95339.63
2023-03-26T12:44:55.607Z,95330.59
2023-03-26T12:47:56.491Z,95336.84
2023-03-26T12:48:56.632Z,95338.97
2023-03-26T12:51:06.330Z,95336.03
2023-03-26T12:53:48.754Z,95337.78
2023-03-26T12:56:12.404Z,95342.97
2023-03-26T12:58:38.342Z,95345.28
2023-03-26T13:01:02.940Z,95341.28
2023-03-26T13:03:17.934Z,95338.81
2023-03-26T13:05:47.584Z,95348.88
2023-03-26T13:08:26.697Z,95355.94
2023-03-26T13:10:43.156Z,95360.47
2023-03-26T13:13:23.399Z,95367.06
2023-03-26T13:15:25.024Z,95360.13
2023-03-26T13:18:16.340Z,95339.94
2023-03-26T13:20:43.498Z,95329.09
2023-03-26T13:22:56.214Z,95317.50
2023-03-26T13:25:18.540Z,95318.78
2023-03-26T13:27:35.804Z,95306.88
2023-03-26T13:29:56.694Z,95313.44
2023-03-26T13:32:01.488Z,95300.50
2023-03-26T13:34:09.075Z,95302.56
2023-03-26T13:36:31.291Z,95308.75
2023-03-26T13:38:59.222Z,95298.41
2023-03-26T13:41:29.930Z,95306.13
2023-03-26T13:44:05.952Z,95298.41
2023-03-26T13:46:23.839Z,95288.78
2023-03-26T13:48:36.047Z,95284.91
2023-03-26T13:50:43.671Z,95284.72
2023-03-26T13:52:52.198Z,95282.25
2023-03-26T13:55:12.176Z,95287.28
2023-03-26T13:57:35.398Z,95281.47
2023-03-26T13:59:45.647Z,95289.09
2023-03-26T14:01:53.432Z,95280.50
2023-03-26T14:04:07.715Z,95274.63
2023-03-26T14:06:27.793Z,95270.34
2023-03-26T14:08:41.966Z,95277.31
2023-03-26T14:10:51.334Z,95262.75
2023-03-26T14:13:19.198Z,95253.66
2023-03-26T14:15:34.592Z,95253.94
2023-03-26T14:17:47.406Z,95258.50
2023-03-26T14:19:51.848Z,95261.22
2023-03-26T14:22:38.653Z,95258.34
2023-03-26T14:25:02.468Z,95264.31
2023-03-26T14:27:16.359Z,95260.41
2023-03-26T14:29:41.543Z,95247.84
2023-03-26T14:32:29.917Z,95252.81
2023-03-26T14:35:06.614Z,95259.63
2023-03-26T14:37:28.171Z,95255.56
2023-03-26T14:39:56.462Z,95252.94
2023-03-26T14:42:02.663Z,95247.91
2023-03-26T14:44:24.701Z,95251.97
2023-03-26T14:46:35.217Z,95251.22
2023-03-26T14:49:06.812Z,95239.38
2023-03-26T14:51:23.300Z,95238.53
2023-03-26T14:53:33.409Z,95245.97
2023-03-26T14:55:44.169Z,95248.13
2023-03-26T14:58:23.399Z,95248.44
2023-03-26T15:00:56.250Z,95255.41
2023-03-26T15:03:09.634Z,95251.47
2023-03-26T15:05:46.391Z,95238.59
2023-03-26T15:08:11.763Z,95240.50
2023-03-26T15:10:42.343Z,95234.97
2023-03-26T15:13:06.114Z,95231.97
2023-03-26T15:15:29.306Z,95241.28
2023-03-26T15:17:55.671Z,95242.72
2023-03-26T15:20:31.684Z,95226.34
2023-03-26T15:23:25.458Z,95211.56
2023-03-26T15:25:47.829Z,95216.63
2023-03-26T15:28:18.451Z,95216.94
2023-03-26T15:30:30.122Z,95218.69
2023-03-26T15:32:49.398Z,95211.25
2023-03-26T15:35:30.378Z,95213.91
2023-03-26T15:38:03.144Z,95217.22
2023-03-26T15:40:17.087Z,95218.06
2023-03-26T15:42:45.544Z,95213.97
2023-03-26T15:45:22.380Z,95223.88
2023-03-26T15:47:32.830Z,95215.56
2023-03-26T15:49:58.998Z,95225.38
2023-03-26T15:52:23.921Z,95219.78
2023-03-26T15:54:30.139Z,95222.81
2023-03-26T15:57:02.737Z,95214.97
2023-03-26T15:59:28.808Z,95218.94
2023-03-26T16:02:03.713Z,95217.59
2023-03-26T16:04:35.925Z,95210.88
2023-03-26T16:06:55.202Z,95209.50
2023-03-26T16:09:38.565Z,95218.22
2023-03-26T16:12:12.402Z,95220.50
2023-03-26T16:14:35.939Z,95211.84
2023-03-26T16:16:54.411Z,95225.66
2023-03-26T16:19:20.900Z,95220.84
2023-03-26T16:21:31.263Z,95221.44
2023-03-26T16:23:47.879Z,95219.94
2023-03-26T16:26:07.725Z,95212.00
2023-03-26T16:28:27.919Z,95214.66
2023-03-26T16:30:31.400Z,95230.41
2023-03-26T16:32:36.080Z,95221.91
2023-03-26T16:34:57.158Z,95234.03
2023-03-26T16:36:59.102Z,95231.31
2023-03-26T16:39:04.322Z,95240.91
2023-03-26T16:41:26.939Z,95302.28
2023-03-26T16:43:48.091Z,95346.59
2023-03-26T16:46:28.567Z,95338.31
2023-03-26T16:49:03.655Z,95320.06
2023-03-26T16:51:18.517Z,95333.00
2023-03-26T16:53:41.612Z,95328.34
2023-03-26T16:55:58.929Z,95338.88
2023-03-26T16:58:22.439Z,95337.63
2023-03-26T17:00:29.996Z,95340.47
2023-03-26T17:02:42.511Z,95338.75
2023-03-26T17:04:48.523Z,95333.81
2023-03-26T17:07:13.942Z,95334.25
2023-03-26T17:09:51.775Z,95340.72
2023-03-26T17:12:08.382Z,95334.22
2023-03-26T17:14:34.635Z,95330.28
2023-03-26T17:16:42.715Z,95329.78
2023-03-26T17:19:00.591Z,95323.63
2023-03-26T17:21:19.656Z,95341.41
2023-03-26T17:23:27.135Z,95334.44
2023-03-26T17:25:57.217Z,95338.88
2023-03-26T17:28:25.130Z,95337.25
2023-03-26T17:30:38.204Z,95331.03
2023-03-26T17:32:58.666Z,95341.13
2023-03-26T17:35:03.517Z,95333.50
2023-03-26T17:37:27.797Z,95332.69
2023-03-26T17:39:46.660Z,95331.25
2023-03-26T17:42:01.138Z,95330.91
2023-03-26T17:44:28.926Z,95332.53
2023-03-26T17:46:42.696Z,95328.81
2023-03-26T17:48:49.212Z,95321.94
2023-03-26T17:50:56.366Z,95329.00
2023-03-26T17:53:29.167Z,95322.09
2023-03-26T17:55:34.834Z,95320.50
2023-03-26T17:57:50.345Z,95319.47
2023-03-26T17:59:57.661Z,95320.19
2023-03-26T18:02:03.454Z,95318.72
2023-03-26T18:04:15.511Z,95322.56
2023-03-26T18:06:40.644Z,95330.47
2023-03-26T18:09:11.983Z,95327.63
2023-03-26T18:11:23.863Z,95330.13
2023-03-26T18:13:45.911Z,95324.28
2023-03-26T18:16:06.108Z,95336.25
2023-03-26T18:18:22.570Z,95328.53
2023-03-26T18:20:28.203Z,95326.63
2023-03-26T18:22:30.354Z,95328.13
2023-03-26T18:24:38.305Z,95333.31
2023-03-26T18:26:42.623Z,95338.56
2023-03-26T18:28:49.331Z,95343.16
2023-03-26T18:30:51.735Z,95345.53
2023-03-26T18:33:01.201Z,95342.78
2023-03-26T18:35:20.121Z,95345.44
2023-03-26T18:37:24.055Z,95345.78
2023-03-26T18:39:25.705Z,95344.78
2023-03-26T18:41:31.231Z,95337.88
2023-03-26T18:43:35.649Z,95351.16
2023-03-26T18:45:49.481Z,95346.84
2023-03-26T18:47:57.842Z,95356.41
2023-03-26T18:50:00.098Z,95361.19
2023-03-26T18:52:01.853Z,95352.81
2023-03-26T18:54:06.557Z,95359.03
2023-03-26T18:56:27.791Z,95353.84
2023-03-26T18:58:37.134Z,95349.63
2023-03-26T19:00:40.013Z,95354.66
2023-03-26T19:02:41.833Z,95358.00
2023-03-26T19:04:46.973Z,95355.19
2023-03-26T19:06:53.638Z,95363.06
2023-03-26T19:08:57.063Z,95345.28
2023-03-26T19:11:02.666Z,95352.22
2023-03-26T19:13:04.281Z,95354.66
2023-03-26T19:15:11.034Z,95353.34
2023-03-26T19:17:12.959Z,95360.56
2023-03-26T19:19:22.418Z,95362.38
2023-03-26T19:21:25.068Z,95353.94
2023-03-26T19:23:31.108Z,95354.66
2023-03-26T19:25:45.980Z,95354.00
2023-03-26T19:27:48.202Z,95362.56
2023-03-26T19:29:50.176Z,95359.78
2023-03-26T19:31:52.762Z,95362.66
2023-03-26T19:33:58.138Z,95359.22
2023-03-26T19:36:15.931Z,95356.19
2023-03-26T19:38:29.548Z,95363.97
2023-03-26T19:40:33.642Z,95355.41
2023-03-26T19:42:43.910Z,95366.56
2023-03-26T19:44:46.360Z,95365.94
2023-03-26T19:46:54.005Z,95361.72
2023-03-26T19:48:57.536Z,95363.41
2023-03-26T19:51:05.990Z,95368.41
2023-03-26T19:53:16.600Z,95365.06
2023-03-26T19:55:24.245Z,95362.47
2023-03-26T19:57:25.772Z,95365.66
2023-03-26T19:59:27.372Z,95373.78
2023-03-26T20:01:30.626Z,95364.25
2023-03-26T20:03:44.449Z,95370.78
2023-03-26T20:05:46.153Z,95368.16
2023-03-26T20:07:50.070Z,95377.91
2023-03-26T20:09:52.421Z,95374.63
2023-03-26T20:11:54.237Z,95368.59
2023-03-26T20:13:55.875Z,95365.91
2023-03-26T20:16:07.192Z,95377.50
2023-03-26T20:18:08.898Z,95369.59
2023-03-26T20:20:13.853Z,95373.97
2023-03-26T20:22:23.511Z,95368.41
2023-03-26T20:24:26.013Z,95375.56
2023-03-26T20:26:27.694Z,95379.25
2023-03-26T20:28:30.380Z,95377.31
2023-03-26T20:30:37.904Z,95373.94
2023-03-26T20:32:40.568Z,95383.50
2023-03-26T20:34:42.054Z,95373.47
2023-03-26T20:36:45.460Z,95376.56
2023-03-26T20:38:47.222Z,95372.97
2023-03-26T20:40:49.406Z,95371.78
2023-03-26T20:42:51.274Z,95383.69
2023-03-26T20:44:52.870Z,95385.72
2023-03-26T20:46:56.291Z,95377.41
2023-03-26T20:48:58.064Z,95382.88
2023-03-26T20:50:59.686Z,95378.38
2023-03-26T20:53:02.480Z,95387.16
2023-03-26T20:55:04.334Z,95384.22
2023-03-26T20:57:05.920Z,95382.97
2023-03-26T20:59:11.345Z,95384.13
2023-03-26T21:01:14.234Z,95379.59
2023-03-26T21:03:18.072Z,95388.06
2023-03-26T21:05:24.865Z,95389.00
2023-03-26T21:07:26.684Z,95383.88
2023-03-26T21:09:34.084Z,95390.75
2023-03-26T21:12:04.927Z,95399.13
2023-03-26T21:14:18.361Z,95397.03
2023-03-26T21:16:20.238Z,95403.50
2023-03-26T21:18:22.499Z,95405.06
2023-03-26T21:20:27.868Z,95408.41
2023-03-26T21:23:08.716Z,95412.31
2023-03-26T21:25:28.397Z,95419.28
2023-03-26T21:27:36.255Z,95414.88
2023-03-26T21:29:39.183Z,95425.97
2023-03-26T21:31:41.066Z,95427.19
2023-03-26T21:33:42.777Z,95428.13
2023-03-26T21:35:44.840Z,95433.13
2023-03-26T21:37:49.688Z,95436.25
2023-03-26T21:39:51.514Z,95432.88
2023-03-26T21:42:04.336Z,95439.53
2023-03-26T21:44:08.355Z,95441.78
2023-03-26T21:46:10.772Z,95428.38
2023-03-26T21:48:13.018Z,95437.50
2023-03-26T21:50:17.928Z,95442.91
2023-03-26T21:52:19.715Z,95462.56
2023-03-26T21:54:23.052Z,95458.94
2023-03-26T21:56:43.705Z,95458.84
2023-03-26T21:58:51.649Z,95467.81
2023-03-26T22:01:30.509Z,95473.66
2023-03-26T22:03:55.096Z,95477.41
2023-03-26T22:06:07.009Z,95475.25
2023-03-26T22:08:21.819Z,95480.13
2023-03-26T22:10:23.249Z,95485.44
2023-03-26T22:12:25.563Z,95480.97
2023-03-26T22:14:28.179Z,95495.72
2023-03-26T22:16:29.898Z,95501.94
2023-03-26T22:18:32.832Z,95501.53
2023-03-26T22:20:34.540Z,95512.00
2023-03-26T22:22:36.096Z,95508.28
2023-03-26T22:24:38.408Z,95512.81
2023-03-26T22:26:39.900Z,95524.63
2023-03-26T22:28:41.588Z,95522.00
2023-03-26T22:30:43.120Z,95518.38
2023-03-26T22:32:45.466Z,95525.44
2023-03-26T22:34:47.085Z,95537.00
2023-03-26T22:36:48.685Z,95544.66
2023-03-26T22:38:53.538Z,95536.03
2023-03-26T22:40:57.150Z,95545.22
2023-03-26T22:42:58.908Z,95555.22
2023-03-26T22:45:00.617Z,95559.50
2023-03-26T22:47:02.226Z,95570.94
2023-03-26T22:49:03.964Z,95562.63
2023-03-26T22:51:08.009Z,95580.06
2023-03-26T22:53:09.602Z,95573.69
2023-03-26T22:55:11.551Z,95588.34
2023-03-26T22:57:13.146Z,95595.34
2023-03-26T22:59:15.300Z,95603.75
2023-03-26T23:01:21.241Z,95614.31
2023-03-26T23:03:35.235Z,95613.53
2023-03-26T23:05:38.142Z,95619.81
2023-03-26T23:07:40.152Z,95632.09
2023-03-26T23:09:41.799Z,95632.84
2023-03-26T23:11:43.469Z,95628.28
2023-03-26T23:13:47.748Z,95641.25
2023-03-26T23:15:51.010Z,95652.75
2023-03-26T23:17:54.708Z,95659.34
2023-03-26T23:19:56.766Z,95668.59
2023-03-26T23:21:58.471Z,95666.41
2023-03-26T23:24:00.287Z,95677.16
2023-03-26T23:26:06.670Z,95684.03
2023-03-26T23:28:08.266Z,95676.44
2023-03-26T23:30:10.869Z,95685.94
2023-03-26T23:32:23.574Z,95700.84
2023-03-26T23:34:26.617Z,95705.41
2023-03-26T23:36:28.245Z,95711.97
2023-03-26T23:38:43.481Z,95723.03
2023-03-26T23:40:57.220Z,95719.25
2023-03-26T23:42:59.331Z,95717.03
2023-03-26T23:45:00.962Z,95718.94
2023-03-26T23:47:02.544Z,95727.75
2023-03-26T23:49:04.111Z,95731.50
2023-03-26T23:51:06.744Z,95750.97
2023-03-26T23:53:08.426Z,95751.38
2023-03-26T23:55:10.088Z,95747.56
2023-03-26T23:57:11.889Z,95761.66
2023-03-26T23:59:13.632Z,95761.72
